sensor_id;sensor_type;location;lat;lon;timestamp;P1;durP1;ratioP1;P2;durP2;ratioP2
15929;SDS011;8064;51.142;4.780;2024-03-22T00:00:43;21.13;;;12.77;;
15929;SDS011;8064;51.142;4.780;2024-03-22T00:03:09;18.23;;;12.83;;
15929;SDS011;8064;51.142;4.780;2024-03-22T00:05:35;18.83;;;12.43;;
15929;SDS011;8064;51.142;4.780;2024-03-22T00:08:00;19.67;;;13.00;;
15929;SDS011;8064;51.142;4.780;2024-03-22T00:10:26;20.00;;;12.93;;
15929;SDS011;8064;51.142;4.780;2024-03-22T00:12:52;21.83;;;13.80;;
15929;SDS011;8064;51.142;4.780;2024-03-22T00:15:17;21.30;;;13.40;;
15929;SDS011;8064;51.142;4.780;2024-03-22T00:17:44;20.77;;;13.23;;
15929;SDS011;8064;51.142;4.780;2024-03-22T00:20:10;20.80;;;12.80;;
15929;SDS011;8064;51.142;4.780;2024-03-22T00:22:36;20.17;;;13.63;;
15929;SDS011;8064;51.142;4.780;2024-03-22T00:25:02;22.53;;;13.70;;
15929;SDS011;8064;51.142;4.780;2024-03-22T00:27:27;17.77;;;12.93;;
15929;SDS011;8064;51.142;4.780;2024-03-22T00:29:53;21.07;;;12.90;;
15929;SDS011;8064;51.142;4.780;2024-03-22T00:32:19;22.33;;;13.47;;
15929;SDS011;8064;51.142;4.780;2024-03-22T00:34:45;22.60;;;14.43;;
15929;SDS011;8064;51.142;4.780;2024-03-22T00:37:11;21.60;;;13.80;;
15929;SDS011;8064;51.142;4.780;2024-03-22T00:39:36;20.80;;;13.10;;
15929;SDS011;8064;51.142;4.780;2024-03-22T00:42:02;18.87;;;12.17;;
15929;SDS011;8064;51.142;4.780;2024-03-22T00:44:28;20.90;;;13.03;;
15929;SDS011;8064;51.142;4.780;2024-03-22T00:46:54;22.50;;;14.20;;
15929;SDS011;8064;51.142;4.780;2024-03-22T00:49:20;20.87;;;13.73;;
15929;SDS011;8064;51.142;4.780;2024-03-22T00:51:45;21.27;;;13.87;;
15929;SDS011;8064;51.142;4.780;2024-03-22T00:54:12;20.73;;;13.73;;
15929;SDS011;8064;51.142;4.780;2024-03-22T00:56:38;22.80;;;13.23;;
15929;SDS011;8064;51.142;4.780;2024-03-22T00:59:04;21.87;;;13.37;;
15929;SDS011;8064;51.142;4.780;2024-03-22T01:01:29;21.97;;;12.83;;
15929;SDS011;8064;51.142;4.780;2024-03-22T01:03:55;20.47;;;13.10;;
15929;SDS011;8064;51.142;4.780;2024-03-22T01:06:21;20.97;;;13.03;;
15929;SDS011;8064;51.142;4.780;2024-03-22T01:08:50;16.73;;;12.00;;
15929;SDS011;8064;51.142;4.780;2024-03-22T01:11:17;22.53;;;12.57;;
15929;SDS011;8064;51.142;4.780;2024-03-22T01:13:43;18.83;;;12.00;;
15929;SDS011;8064;51.142;4.780;2024-03-22T01:16:08;20.50;;;12.97;;
15929;SDS011;8064;51.142;4.780;2024-03-22T01:18:35;18.87;;;12.13;;
15929;SDS011;8064;51.142;4.780;2024-03-22T01:21:01;21.97;;;13.30;;
15929;SDS011;8064;51.142;4.780;2024-03-22T01:23:27;18.33;;;12.17;;
15929;SDS011;8064;51.142;4.780;2024-03-22T01:25:53;18.40;;;11.87;;
15929;SDS011;8064;51.142;4.780;2024-03-22T01:28:19;17.93;;;11.43;;
15929;SDS011;8064;51.142;4.780;2024-03-22T01:30:44;17.40;;;11.73;;
15929;SDS011;8064;51.142;4.780;2024-03-22T01:33:10;19.97;;;11.53;;
15929;SDS011;8064;51.142;4.780;2024-03-22T01:35:36;16.10;;;11.07;;
15929;SDS011;8064;51.142;4.780;2024-03-22T01:38:02;18.60;;;12.43;;
15929;SDS011;8064;51.142;4.780;2024-03-22T01:40:27;18.27;;;10.73;;
15929;SDS011;8064;51.142;4.780;2024-03-22T01:42:55;15.03;;;10.90;;
15929;SDS011;8064;51.142;4.780;2024-03-22T01:45:21;16.43;;;11.37;;
15929;SDS011;8064;51.142;4.780;2024-03-22T01:47:49;16.43;;;11.47;;
15929;SDS011;8064;51.142;4.780;2024-03-22T01:50:16;16.50;;;11.00;;
15929;SDS011;8064;51.142;4.780;2024-03-22T01:52:42;17.80;;;11.50;;
15929;SDS011;8064;51.142;4.780;2024-03-22T01:55:08;14.00;;;10.27;;
15929;SDS011;8064;51.142;4.780;2024-03-22T01:57:34;16.03;;;10.97;;
15929;SDS011;8064;51.142;4.780;2024-03-22T02:00:00;16.10;;;10.90;;
15929;SDS011;8064;51.142;4.780;2024-03-22T02:02:26;14.20;;;10.57;;
15929;SDS011;8064;51.142;4.780;2024-03-22T02:04:52;14.90;;;10.03;;
15929;SDS011;8064;51.142;4.780;2024-03-22T02:07:18;13.70;;;10.20;;
15929;SDS011;8064;51.142;4.780;2024-03-22T02:09:43;15.00;;;9.93;;
15929;SDS011;8064;51.142;4.780;2024-03-22T02:12:10;13.33;;;9.90;;
15929;SDS011;8064;51.142;4.780;2024-03-22T02:14:36;13.40;;;10.07;;
15929;SDS011;8064;51.142;4.780;2024-03-22T02:17:02;15.00;;;11.00;;
15929;SDS011;8064;51.142;4.780;2024-03-22T02:19:27;14.53;;;10.03;;
15929;SDS011;8064;51.142;4.780;2024-03-22T02:21:53;16.80;;;9.97;;
15929;SDS011;8064;51.142;4.780;2024-03-22T02:24:19;14.60;;;9.43;;
15929;SDS011;8064;51.142;4.780;2024-03-22T02:26:44;12.60;;;9.77;;
15929;SDS011;8064;51.142;4.780;2024-03-22T02:29:10;13.87;;;9.93;;
15929;SDS011;8064;51.142;4.780;2024-03-22T02:31:36;15.23;;;10.10;;
15929;SDS011;8064;51.142;4.780;2024-03-22T02:34:02;13.50;;;10.37;;
15929;SDS011;8064;51.142;4.780;2024-03-22T02:36:28;13.90;;;9.93;;
15929;SDS011;8064;51.142;4.780;2024-03-22T02:38:54;15.87;;;10.60;;
15929;SDS011;8064;51.142;4.780;2024-03-22T02:41:20;14.80;;;9.43;;
15929;SDS011;8064;51.142;4.780;2024-03-22T02:43:46;14.40;;;9.50;;
15929;SDS011;8064;51.142;4.780;2024-03-22T02:46:12;13.53;;;9.53;;
15929;SDS011;8064;51.142;4.780;2024-03-22T02:48:38;13.73;;;10.57;;
15929;SDS011;8064;51.142;4.780;2024-03-22T02:51:04;13.27;;;10.30;;
15929;SDS011;8064;51.142;4.780;2024-03-22T02:53:30;14.30;;;10.23;;
15929;SDS011;8064;51.142;4.780;2024-03-22T02:55:55;14.83;;;10.10;;
15929;SDS011;8064;51.142;4.780;2024-03-22T02:58:24;13.33;;;9.70;;
15929;SDS011;8064;51.142;4.780;2024-03-22T03:00:50;16.20;;;10.57;;
15929;SDS011;8064;51.142;4.780;2024-03-22T03:03:17;14.17;;;10.33;;
15929;SDS011;8064;51.142;4.780;2024-03-22T03:05:42;14.07;;;10.40;;
15929;SDS011;8064;51.142;4.780;2024-03-22T03:08:09;13.43;;;10.53;;
15929;SDS011;8064;51.142;4.780;2024-03-22T03:10:35;13.53;;;10.33;;
15929;SDS011;8064;51.142;4.780;2024-03-22T03:13:01;16.50;;;10.93;;
15929;SDS011;8064;51.142;4.780;2024-03-22T03:15:26;13.70;;;10.23;;
15929;SDS011;8064;51.142;4.780;2024-03-22T03:17:52;13.87;;;10.30;;
15929;SDS011;8064;51.142;4.780;2024-03-22T03:20:18;12.57;;;10.07;;
15929;SDS011;8064;51.142;4.780;2024-03-22T03:22:44;13.67;;;10.17;;
15929;SDS011;8064;51.142;4.780;2024-03-22T03:25:10;15.17;;;10.33;;
15929;SDS011;8064;51.142;4.780;2024-03-22T03:27:35;14.70;;;10.20;;
15929;SDS011;8064;51.142;4.780;2024-03-22T03:30:01;14.57;;;10.60;;
15929;SDS011;8064;51.142;4.780;2024-03-22T03:32:27;15.77;;;10.37;;
15929;SDS011;8064;51.142;4.780;2024-03-22T03:34:53;13.07;;;9.23;;
15929;SDS011;8064;51.142;4.780;2024-03-22T03:37:19;17.07;;;10.80;;
15929;SDS011;8064;51.142;4.780;2024-03-22T03:39:45;15.83;;;10.53;;
15929;SDS011;8064;51.142;4.780;2024-03-22T03:42:11;14.67;;;9.40;;
15929;SDS011;8064;51.142;4.780;2024-03-22T03:44:37;13.53;;;9.03;;
15929;SDS011;8064;51.142;4.780;2024-03-22T03:47:02;12.93;;;9.47;;
15929;SDS011;8064;51.142;4.780;2024-03-22T03:49:28;14.07;;;9.67;;
15929;SDS011;8064;51.142;4.780;2024-03-22T03:51:54;13.43;;;9.83;;
15929;SDS011;8064;51.142;4.780;2024-03-22T03:54:20;13.57;;;10.03;;
15929;SDS011;8064;51.142;4.780;2024-03-22T03:56:46;13.53;;;9.90;;
15929;SDS011;8064;51.142;4.780;2024-03-22T03:59:11;13.93;;;9.70;;
15929;SDS011;8064;51.142;4.780;2024-03-22T04:01:37;12.57;;;9.03;;
15929;SDS011;8064;51.142;4.780;2024-03-22T04:04:03;14.60;;;9.50;;
15929;SDS011;8064;51.142;4.780;2024-03-22T04:06:29;11.77;;;8.43;;
15929;SDS011;8064;51.142;4.780;2024-03-22T04:08:55;13.00;;;9.13;;
15929;SDS011;8064;51.142;4.780;2024-03-22T04:11:22;12.00;;;8.50;;
15929;SDS011;8064;51.142;4.780;2024-03-22T04:13:48;14.73;;;8.80;;
15929;SDS011;8064;51.142;4.780;2024-03-22T04:16:14;12.37;;;8.40;;
15929;SDS011;8064;51.142;4.780;2024-03-22T04:18:40;11.50;;;8.30;;
15929;SDS011;8064;51.142;4.780;2024-03-22T04:21:05;12.00;;;8.23;;
15929;SDS011;8064;51.142;4.780;2024-03-22T04:23:31;13.43;;;8.63;;
15929;SDS011;8064;51.142;4.780;2024-03-22T04:25:58;10.93;;;8.00;;
15929;SDS011;8064;51.142;4.780;2024-03-22T04:28:25;16.67;;;8.77;;
15929;SDS011;8064;51.142;4.780;2024-03-22T04:30:57;13.80;;;9.20;;
15929;SDS011;8064;51.142;4.780;2024-03-22T04:33:26;12.97;;;8.13;;
15929;SDS011;8064;51.142;4.780;2024-03-22T04:35:52;12.90;;;7.73;;
15929;SDS011;8064;51.142;4.780;2024-03-22T04:38:18;13.43;;;8.30;;
15929;SDS011;8064;51.142;4.780;2024-03-22T04:40:44;11.67;;;8.30;;
15929;SDS011;8064;51.142;4.780;2024-03-22T04:43:10;13.73;;;8.07;;
15929;SDS011;8064;51.142;4.780;2024-03-22T04:45:36;11.47;;;7.27;;
15929;SDS011;8064;51.142;4.780;2024-03-22T04:48:02;11.47;;;8.17;;
15929;SDS011;8064;51.142;4.780;2024-03-22T04:50:29;11.90;;;8.10;;
15929;SDS011;8064;51.142;4.780;2024-03-22T04:52:56;16.60;;;8.47;;
15929;SDS011;8064;51.142;4.780;2024-03-22T04:55:22;11.20;;;7.50;;
15929;SDS011;8064;51.142;4.780;2024-03-22T04:57:47;11.00;;;7.30;;
15929;SDS011;8064;51.142;4.780;2024-03-22T05:00:13;12.73;;;7.57;;
15929;SDS011;8064;51.142;4.780;2024-03-22T05:02:40;11.57;;;8.00;;
15929;SDS011;8064;51.142;4.780;2024-03-22T05:05:06;11.00;;;7.47;;
15929;SDS011;8064;51.142;4.780;2024-03-22T05:07:33;12.47;;;7.97;;
15929;SDS011;8064;51.142;4.780;2024-03-22T05:09:59;11.13;;;7.40;;
15929;SDS011;8064;51.142;4.780;2024-03-22T05:12:24;12.97;;;8.23;;
15929;SDS011;8064;51.142;4.780;2024-03-22T05:14:50;13.30;;;7.83;;
15929;SDS011;8064;51.142;4.780;2024-03-22T05:17:16;10.73;;;7.07;;
15929;SDS011;8064;51.142;4.780;2024-03-22T05:19:42;12.37;;;7.10;;
15929;SDS011;8064;51.142;4.780;2024-03-22T05:22:08;11.03;;;7.37;;
15929;SDS011;8064;51.142;4.780;2024-03-22T05:24:33;10.53;;;7.50;;
15929;SDS011;8064;51.142;4.780;2024-03-22T05:26:59;12.03;;;7.57;;
15929;SDS011;8064;51.142;4.780;2024-03-22T05:29:25;10.00;;;6.83;;
15929;SDS011;8064;51.142;4.780;2024-03-22T05:31:51;10.93;;;6.87;;
15929;SDS011;8064;51.142;4.780;2024-03-22T05:34:17;9.50;;;6.70;;
15929;SDS011;8064;51.142;4.780;2024-03-22T05:36:44;10.97;;;7.63;;
15929;SDS011;8064;51.142;4.780;2024-03-22T05:39:10;10.60;;;7.37;;
15929;SDS011;8064;51.142;4.780;2024-03-22T05:41:37;9.70;;;6.80;;
15929;SDS011;8064;51.142;4.780;2024-03-22T05:44:03;10.90;;;7.70;;
15929;SDS011;8064;51.142;4.780;2024-03-22T05:46:29;11.23;;;6.70;;
15929;SDS011;8064;51.142;4.780;2024-03-22T05:48:55;11.07;;;7.10;;
15929;SDS011;8064;51.142;4.780;2024-03-22T05:51:22;11.90;;;6.60;;
15929;SDS011;8064;51.142;4.780;2024-03-22T05:53:48;10.77;;;7.10;;
15929;SDS011;8064;51.142;4.780;2024-03-22T05:56:13;10.83;;;6.80;;
15929;SDS011;8064;51.142;4.780;2024-03-22T05:58:39;10.40;;;6.80;;
15929;SDS011;8064;51.142;4.780;2024-03-22T06:01:05;10.27;;;6.73;;
15929;SDS011;8064;51.142;4.780;2024-03-22T06:03:31;10.80;;;6.50;;
15929;SDS011;8064;51.142;4.780;2024-03-22T06:05:58;10.43;;;6.40;;
15929;SDS011;8064;51.142;4.780;2024-03-22T06:08:25;8.93;;;6.20;;
15929;SDS011;8064;51.142;4.780;2024-03-22T06:10:52;9.37;;;6.60;;
15929;SDS011;8064;51.142;4.780;2024-03-22T06:13:19;9.80;;;6.80;;
15929;SDS011;8064;51.142;4.780;2024-03-22T06:15:48;9.07;;;5.93;;
15929;SDS011;8064;51.142;4.780;2024-03-22T06:18:14;10.87;;;6.50;;
15929;SDS011;8064;51.142;4.780;2024-03-22T06:20:40;8.80;;;6.20;;
15929;SDS011;8064;51.142;4.780;2024-03-22T06:23:07;9.27;;;6.17;;
15929;SDS011;8064;51.142;4.780;2024-03-22T06:25:33;9.10;;;6.00;;
15929;SDS011;8064;51.142;4.780;2024-03-22T06:27:59;7.13;;;5.70;;
15929;SDS011;8064;51.142;4.780;2024-03-22T06:30:24;8.30;;;6.33;;
15929;SDS011;8064;51.142;4.780;2024-03-22T06:32:50;8.67;;;6.03;;
15929;SDS011;8064;51.142;4.780;2024-03-22T06:35:16;6.80;;;5.10;;
15929;SDS011;8064;51.142;4.780;2024-03-22T06:37:42;7.10;;;5.03;;
15929;SDS011;8064;51.142;4.780;2024-03-22T06:40:07;8.20;;;5.70;;
15929;SDS011;8064;51.142;4.780;2024-03-22T06:42:35;6.73;;;5.10;;
15929;SDS011;8064;51.142;4.780;2024-03-22T06:45:02;8.90;;;5.53;;
15929;SDS011;8064;51.142;4.780;2024-03-22T06:47:28;7.87;;;5.40;;
15929;SDS011;8064;51.142;4.780;2024-03-22T06:49:54;7.23;;;5.27;;
15929;SDS011;8064;51.142;4.780;2024-03-22T06:52:20;6.87;;;4.90;;
15929;SDS011;8064;51.142;4.780;2024-03-22T06:54:46;7.13;;;5.00;;
15929;SDS011;8064;51.142;4.780;2024-03-22T06:57:12;6.80;;;5.20;;
15929;SDS011;8064;51.142;4.780;2024-03-22T06:59:38;7.00;;;4.80;;
15929;SDS011;8064;51.142;4.780;2024-03-22T07:02:03;6.97;;;4.90;;
15929;SDS011;8064;51.142;4.780;2024-03-22T07:04:30;7.33;;;5.10;;
15929;SDS011;8064;51.142;4.780;2024-03-22T07:06:55;6.40;;;4.80;;
15929;SDS011;8064;51.142;4.780;2024-03-22T07:09:21;7.40;;;5.33;;
15929;SDS011;8064;51.142;4.780;2024-03-22T07:11:47;7.27;;;5.40;;
15929;SDS011;8064;51.142;4.780;2024-03-22T07:14:13;7.50;;;5.27;;
15929;SDS011;8064;51.142;4.780;2024-03-22T07:16:39;7.40;;;5.30;;
15929;SDS011;8064;51.142;4.780;2024-03-22T07:19:04;5.87;;;4.67;;
15929;SDS011;8064;51.142;4.780;2024-03-22T07:21:31;5.97;;;4.20;;
15929;SDS011;8064;51.142;4.780;2024-03-22T07:23:56;6.20;;;4.87;;
15929;SDS011;8064;51.142;4.780;2024-03-22T07:26:22;6.63;;;4.73;;
15929;SDS011;8064;51.142;4.780;2024-03-22T07:28:48;7.90;;;4.97;;
15929;SDS011;8064;51.142;4.780;2024-03-22T07:31:14;5.50;;;4.20;;
15929;SDS011;8064;51.142;4.780;2024-03-22T07:33:41;6.03;;;4.67;;
15929;SDS011;8064;51.142;4.780;2024-03-22T07:36:07;7.10;;;5.13;;
15929;SDS011;8064;51.142;4.780;2024-03-22T07:38:33;5.03;;;4.20;;
15929;SDS011;8064;51.142;4.780;2024-03-22T07:40:58;6.47;;;4.70;;
15929;SDS011;8064;51.142;4.780;2024-03-22T07:43:24;6.43;;;4.70;;
15929;SDS011;8064;51.142;4.780;2024-03-22T07:45:50;6.20;;;4.57;;
15929;SDS011;8064;51.142;4.780;2024-03-22T07:48:16;5.37;;;4.50;;
15929;SDS011;8064;51.142;4.780;2024-03-22T07:50:41;5.00;;;4.10;;
15929;SDS011;8064;51.142;4.780;2024-03-22T07:53:08;5.30;;;4.13;;
15929;SDS011;8064;51.142;4.780;2024-03-22T07:55:34;6.43;;;4.17;;
15929;SDS011;8064;51.142;4.780;2024-03-22T07:58:00;4.40;;;3.63;;
15929;SDS011;8064;51.142;4.780;2024-03-22T08:00:26;5.67;;;3.73;;
15929;SDS011;8064;51.142;4.780;2024-03-22T08:02:52;4.70;;;3.67;;
15929;SDS011;8064;51.142;4.780;2024-03-22T08:05:18;2.80;;;2.47;;
15929;SDS011;8064;51.142;4.780;2024-03-22T08:07:44;3.37;;;3.00;;
15929;SDS011;8064;51.142;4.780;2024-03-22T08:10:10;3.43;;;2.90;;
15929;SDS011;8064;51.142;4.780;2024-03-22T08:12:36;3.23;;;2.73;;
15929;SDS011;8064;51.142;4.780;2024-03-22T08:15:02;3.17;;;2.87;;
15929;SDS011;8064;51.142;4.780;2024-03-22T08:17:28;4.27;;;3.30;;
15929;SDS011;8064;51.142;4.780;2024-03-22T08:19:54;4.47;;;3.43;;
15929;SDS011;8064;51.142;4.780;2024-03-22T08:22:20;3.20;;;2.90;;
15929;SDS011;8064;51.142;4.780;2024-03-22T08:24:45;4.13;;;2.63;;
15929;SDS011;8064;51.142;4.780;2024-03-22T08:27:11;3.63;;;3.27;;
15929;SDS011;8064;51.142;4.780;2024-03-22T08:29:37;3.87;;;3.10;;
15929;SDS011;8064;51.142;4.780;2024-03-22T08:32:03;4.03;;;3.20;;
15929;SDS011;8064;51.142;4.780;2024-03-22T08:34:30;3.30;;;3.00;;
15929;SDS011;8064;51.142;4.780;2024-03-22T08:36:57;3.27;;;2.90;;
15929;SDS011;8064;51.142;4.780;2024-03-22T08:39:23;3.80;;;3.10;;
15929;SDS011;8064;51.142;4.780;2024-03-22T08:41:49;4.30;;;3.53;;
15929;SDS011;8064;51.142;4.780;2024-03-22T08:44:16;3.70;;;3.07;;
15929;SDS011;8064;51.142;4.780;2024-03-22T08:46:43;3.47;;;3.17;;
15929;SDS011;8064;51.142;4.780;2024-03-22T08:49:08;4.77;;;3.90;;
15929;SDS011;8064;51.142;4.780;2024-03-22T08:51:34;4.40;;;4.00;;
15929;SDS011;8064;51.142;4.780;2024-03-22T08:54:00;4.87;;;3.90;;
15929;SDS011;8064;51.142;4.780;2024-03-22T08:56:26;4.23;;;3.40;;
15929;SDS011;8064;51.142;4.780;2024-03-22T08:58:52;4.40;;;3.30;;
15929;SDS011;8064;51.142;4.780;2024-03-22T09:01:17;3.90;;;3.33;;
15929;SDS011;8064;51.142;4.780;2024-03-22T09:03:43;3.73;;;3.23;;
15929;SDS011;8064;51.142;4.780;2024-03-22T09:06:11;4.53;;;3.80;;
15929;SDS011;8064;51.142;4.780;2024-03-22T09:08:38;4.90;;;3.83;;
15929;SDS011;8064;51.142;4.780;2024-03-22T09:11:05;3.63;;;3.27;;
15929;SDS011;8064;51.142;4.780;2024-03-22T09:13:31;4.10;;;3.23;;
15929;SDS011;8064;51.142;4.780;2024-03-22T09:15:59;4.70;;;4.00;;
15929;SDS011;8064;51.142;4.780;2024-03-22T09:18:26;4.30;;;3.10;;
15929;SDS011;8064;51.142;4.780;2024-03-22T09:20:53;4.83;;;3.80;;
15929;SDS011;8064;51.142;4.780;2024-03-22T09:23:19;4.80;;;3.37;;
15929;SDS011;8064;51.142;4.780;2024-03-22T09:25:46;3.83;;;3.33;;
15929;SDS011;8064;51.142;4.780;2024-03-22T09:28:12;4.03;;;3.63;;
15929;SDS011;8064;51.142;4.780;2024-03-22T09:30:39;4.23;;;3.30;;
15929;SDS011;8064;51.142;4.780;2024-03-22T09:33:06;4.10;;;3.13;;
15929;SDS011;8064;51.142;4.780;2024-03-22T09:35:33;3.80;;;3.23;;
15929;SDS011;8064;51.142;4.780;2024-03-22T09:37:59;4.50;;;3.50;;
15929;SDS011;8064;51.142;4.780;2024-03-22T09:40:25;4.17;;;3.33;;
15929;SDS011;8064;51.142;4.780;2024-03-22T09:42:51;4.13;;;3.40;;
15929;SDS011;8064;51.142;4.780;2024-03-22T09:45:18;3.83;;;3.30;;
15929;SDS011;8064;51.142;4.780;2024-03-22T09:47:45;3.97;;;3.40;;
15929;SDS011;8064;51.142;4.780;2024-03-22T09:50:13;5.20;;;3.67;;
15929;SDS011;8064;51.142;4.780;2024-03-22T09:52:40;4.37;;;3.60;;
15929;SDS011;8064;51.142;4.780;2024-03-22T09:55:07;5.30;;;3.60;;
15929;SDS011;8064;51.142;4.780;2024-03-22T09:57:38;5.37;;;3.40;;
15929;SDS011;8064;51.142;4.780;2024-03-22T10:00:06;4.70;;;3.50;;
15929;SDS011;8064;51.142;4.780;2024-03-22T10:02:33;4.60;;;3.67;;
15929;SDS011;8064;51.142;4.780;2024-03-22T10:04:59;4.23;;;3.33;;
15929;SDS011;8064;51.142;4.780;2024-03-22T10:07:27;4.60;;;3.30;;
15929;SDS011;8064;51.142;4.780;2024-03-22T10:09:53;4.53;;;3.47;;
15929;SDS011;8064;51.142;4.780;2024-03-22T10:12:22;4.63;;;3.60;;
15929;SDS011;8064;51.142;4.780;2024-03-22T10:14:50;5.07;;;3.77;;
15929;SDS011;8064;51.142;4.780;2024-03-22T10:17:22;5.20;;;3.87;;
15929;SDS011;8064;51.142;4.780;2024-03-22T10:19:48;4.83;;;3.30;;
15929;SDS011;8064;51.142;4.780;2024-03-22T10:22:15;5.77;;;3.83;;
15929;SDS011;8064;51.142;4.780;2024-03-22T10:24:42;3.70;;;3.17;;
15929;SDS011;8064;51.142;4.780;2024-03-22T10:27:08;4.53;;;3.40;;
15929;SDS011;8064;51.142;4.780;2024-03-22T10:29:35;4.70;;;3.60;;
15929;SDS011;8064;51.142;4.780;2024-03-22T10:32:01;6.10;;;3.93;;
15929;SDS011;8064;51.142;4.780;2024-03-22T10:34:28;4.40;;;4.00;;
15929;SDS011;8064;51.142;4.780;2024-03-22T10:36:55;6.53;;;3.20;;
15929;SDS011;8064;51.142;4.780;2024-03-22T10:39:23;4.90;;;3.60;;
15929;SDS011;8064;51.142;4.780;2024-03-22T10:41:49;4.80;;;3.50;;
15929;SDS011;8064;51.142;4.780;2024-03-22T10:44:15;5.10;;;3.60;;
15929;SDS011;8064;51.142;4.780;2024-03-22T10:46:44;6.27;;;3.73;;
15929;SDS011;8064;51.142;4.780;2024-03-22T10:49:12;6.37;;;3.90;;
15929;SDS011;8064;51.142;4.780;2024-03-22T10:51:46;7.27;;;3.80;;
15929;SDS011;8064;51.142;4.780;2024-03-22T10:54:18;4.40;;;3.13;;
15929;SDS011;8064;51.142;4.780;2024-03-22T10:56:47;4.10;;;3.07;;
15929;SDS011;8064;51.142;4.780;2024-03-22T10:59:14;5.53;;;3.80;;
15929;SDS011;8064;51.142;4.780;2024-03-22T11:01:48;5.13;;;3.50;;
15929;SDS011;8064;51.142;4.780;2024-03-22T11:04:17;4.60;;;3.27;;
15929;SDS011;8064;51.142;4.780;2024-03-22T11:06:49;5.23;;;3.60;;
15929;SDS011;8064;51.142;4.780;2024-03-22T11:09:21;5.40;;;3.40;;
15929;SDS011;8064;51.142;4.780;2024-03-22T11:11:51;4.53;;;3.50;;
15929;SDS011;8064;51.142;4.780;2024-03-22T11:14:18;3.83;;;3.20;;
15929;SDS011;8064;51.142;4.780;2024-03-22T11:16:46;4.70;;;3.37;;
15929;SDS011;8064;51.142;4.780;2024-03-22T11:19:12;4.03;;;3.27;;
15929;SDS011;8064;51.142;4.780;2024-03-22T11:21:38;4.20;;;3.50;;
15929;SDS011;8064;51.142;4.780;2024-03-22T11:24:04;4.87;;;3.80;;
15929;SDS011;8064;51.142;4.780;2024-03-22T11:26:31;4.47;;;3.50;;
15929;SDS011;8064;51.142;4.780;2024-03-22T11:28:58;4.00;;;3.17;;
15929;SDS011;8064;51.142;4.780;2024-03-22T11:31:24;6.93;;;3.33;;
15929;SDS011;8064;51.142;4.780;2024-03-22T11:33:52;3.70;;;3.30;;
15929;SDS011;8064;51.142;4.780;2024-03-22T11:36:19;4.80;;;3.57;;
15929;SDS011;8064;51.142;4.780;2024-03-22T11:38:46;5.77;;;3.40;;
15929;SDS011;8064;51.142;4.780;2024-03-22T11:41:15;3.47;;;3.17;;
15929;SDS011;8064;51.142;4.780;2024-03-22T11:43:44;5.07;;;3.10;;
15929;SDS011;8064;51.142;4.780;2024-03-22T11:46:12;5.17;;;3.43;;
15929;SDS011;8064;51.142;4.780;2024-03-22T11:48:40;7.70;;;3.70;;
15929;SDS011;8064;51.142;4.780;2024-03-22T11:51:07;3.50;;;2.90;;
15929;SDS011;8064;51.142;4.780;2024-03-22T11:53:34;4.50;;;2.93;;
15929;SDS011;8064;51.142;4.780;2024-03-22T11:56:00;4.30;;;3.27;;
15929;SDS011;8064;51.142;4.780;2024-03-22T11:58:28;3.27;;;2.97;;
15929;SDS011;8064;51.142;4.780;2024-03-22T12:00:55;4.63;;;3.47;;
15929;SDS011;8064;51.142;4.780;2024-03-22T12:03:22;3.50;;;2.87;;
15929;SDS011;8064;51.142;4.780;2024-03-22T12:05:48;4.97;;;3.03;;
15929;SDS011;8064;51.142;4.780;2024-03-22T12:08:16;4.83;;;3.00;;
15929;SDS011;8064;51.142;4.780;2024-03-22T12:10:43;4.27;;;3.23;;
15929;SDS011;8064;51.142;4.780;2024-03-22T12:13:09;5.73;;;3.50;;
15929;SDS011;8064;51.142;4.780;2024-03-22T12:15:35;5.00;;;3.90;;
15929;SDS011;8064;51.142;4.780;2024-03-22T12:18:01;3.37;;;2.87;;
15929;SDS011;8064;51.142;4.780;2024-03-22T12:20:27;3.90;;;3.23;;
15929;SDS011;8064;51.142;4.780;2024-03-22T12:22:53;4.90;;;3.40;;
15929;SDS011;8064;51.142;4.780;2024-03-22T12:25:18;4.73;;;3.30;;
15929;SDS011;8064;51.142;4.780;2024-03-22T12:27:46;5.17;;;3.33;;
15929;SDS011;8064;51.142;4.780;2024-03-22T12:30:12;4.23;;;2.90;;
15929;SDS011;8064;51.142;4.780;2024-03-22T12:32:38;6.43;;;3.33;;
15929;SDS011;8064;51.142;4.780;2024-03-22T12:35:04;4.93;;;3.47;;
15929;SDS011;8064;51.142;4.780;2024-03-22T12:37:30;4.83;;;3.30;;
15929;SDS011;8064;51.142;4.780;2024-03-22T12:39:56;6.00;;;3.27;;
15929;SDS011;8064;51.142;4.780;2024-03-22T12:42:22;5.13;;;3.07;;
15929;SDS011;8064;51.142;4.780;2024-03-22T12:44:48;4.57;;;3.57;;
15929;SDS011;8064;51.142;4.780;2024-03-22T12:47:14;6.13;;;3.33;;
15929;SDS011;8064;51.142;4.780;2024-03-22T12:49:39;3.77;;;3.10;;
15929;SDS011;8064;51.142;4.780;2024-03-22T12:52:05;4.43;;;3.20;;
15929;SDS011;8064;51.142;4.780;2024-03-22T12:54:32;3.57;;;3.00;;
15929;SDS011;8064;51.142;4.780;2024-03-22T12:56:58;4.13;;;3.67;;
15929;SDS011;8064;51.142;4.780;2024-03-22T12:59:23;5.43;;;3.67;;
15929;SDS011;8064;51.142;4.780;2024-03-22T13:01:49;4.10;;;3.37;;
15929;SDS011;8064;51.142;4.780;2024-03-22T13:04:15;5.53;;;3.70;;
15929;SDS011;8064;51.142;4.780;2024-03-22T13:06:42;7.43;;;3.97;;
15929;SDS011;8064;51.142;4.780;2024-03-22T13:09:08;4.17;;;3.67;;
15929;SDS011;8064;51.142;4.780;2024-03-22T13:11:34;6.13;;;3.80;;
15929;SDS011;8064;51.142;4.780;2024-03-22T13:14:01;7.13;;;3.47;;
15929;SDS011;8064;51.142;4.780;2024-03-22T13:16:26;6.80;;;4.17;;
15929;SDS011;8064;51.142;4.780;2024-03-22T13:18:52;8.73;;;4.40;;
15929;SDS011;8064;51.142;4.780;2024-03-22T13:21:18;5.40;;;3.90;;
15929;SDS011;8064;51.142;4.780;2024-03-22T13:23:44;6.23;;;3.87;;
15929;SDS011;8064;51.142;4.780;2024-03-22T13:26:10;5.23;;;3.60;;
15929;SDS011;8064;51.142;4.780;2024-03-22T13:28:36;5.03;;;3.50;;
15929;SDS011;8064;51.142;4.780;2024-03-22T13:31:02;4.77;;;3.60;;
15929;SDS011;8064;51.142;4.780;2024-03-22T13:33:31;4.73;;;3.33;;
15929;SDS011;8064;51.142;4.780;2024-03-22T13:35:58;4.83;;;3.03;;
15929;SDS011;8064;51.142;4.780;2024-03-22T13:38:24;6.67;;;3.37;;
15929;SDS011;8064;51.142;4.780;2024-03-22T13:40:53;3.97;;;3.57;;
15929;SDS011;8064;51.142;4.780;2024-03-22T13:43:20;4.47;;;3.43;;
15929;SDS011;8064;51.142;4.780;2024-03-22T13:45:46;6.40;;;3.40;;
15929;SDS011;8064;51.142;4.780;2024-03-22T13:48:14;6.20;;;3.33;;
15929;SDS011;8064;51.142;4.780;2024-03-22T13:50:40;5.60;;;3.87;;
15929;SDS011;8064;51.142;4.780;2024-03-22T13:53:06;5.77;;;3.20;;
15929;SDS011;8064;51.142;4.780;2024-03-22T13:55:33;4.20;;;3.80;;
15929;SDS011;8064;51.142;4.780;2024-03-22T13:57:59;4.67;;;3.90;;
15929;SDS011;8064;51.142;4.780;2024-03-22T14:00:26;7.87;;;3.97;;
15929;SDS011;8064;51.142;4.780;2024-03-22T14:02:52;5.50;;;3.97;;
15929;SDS011;8064;51.142;4.780;2024-03-22T14:05:20;4.20;;;3.70;;
15929;SDS011;8064;51.142;4.780;2024-03-22T14:07:46;4.80;;;3.60;;
15929;SDS011;8064;51.142;4.780;2024-03-22T14:10:12;6.43;;;4.07;;
15929;SDS011;8064;51.142;4.780;2024-03-22T14:12:41;5.23;;;3.57;;
15929;SDS011;8064;51.142;4.780;2024-03-22T14:15:07;6.23;;;3.90;;
15929;SDS011;8064;51.142;4.780;2024-03-22T14:17:34;4.33;;;3.60;;
15929;SDS011;8064;51.142;4.780;2024-03-22T14:20:00;4.90;;;4.00;;
15929;SDS011;8064;51.142;4.780;2024-03-22T14:22:26;5.23;;;3.73;;
15929;SDS011;8064;51.142;4.780;2024-03-22T14:24:51;4.60;;;2.97;;
15929;SDS011;8064;51.142;4.780;2024-03-22T14:27:17;4.27;;;3.37;;
15929;SDS011;8064;51.142;4.780;2024-03-22T14:29:45;4.80;;;3.20;;
15929;SDS011;8064;51.142;4.780;2024-03-22T14:32:11;4.47;;;3.60;;
15929;SDS011;8064;51.142;4.780;2024-03-22T14:34:37;4.57;;;3.70;;
15929;SDS011;8064;51.142;4.780;2024-03-22T14:37:02;4.03;;;3.23;;
15929;SDS011;8064;51.142;4.780;2024-03-22T14:39:29;4.57;;;3.23;;
15929;SDS011;8064;51.142;4.780;2024-03-22T14:41:55;3.70;;;3.03;;
15929;SDS011;8064;51.142;4.780;2024-03-22T14:44:21;6.83;;;3.27;;
15929;SDS011;8064;51.142;4.780;2024-03-22T14:46:47;4.13;;;3.40;;